Terminal Aerodrome Forecast
Issued by NWS

Home | Current Version | Previous Version | Text Only | Print | Product List | Glossary On
Versions: 1 2 3 4 5 6 7 8 9 10 11 12 13 14 15 16 17 18 19 20 21 22
000
FTUS41 KGYX 020500
TAFAUG
TAF
KAUG 020538Z 0206/0306 VRB03KT P6SM SCT120 BKN200
      TEMPO 0206/0209 1SM BR SCT002
     FM020900 00000KT 1SM BR BKN002
     FM021200 19003KT P6SM BKN120 OVC200
     FM021700 18007KT P6SM SCT120 BKN200
     FM030000 VRB03KT P6SM SCT080 BKN120=

USA.gov is the U.S. government's official web portal to all federal, state and local government web resources and services.